Time;durP1;ratioP1;P1;durP2;ratioP2;P2;SDS_P1;SDS_P2;PMS_P1;PMS_P2;Temp;Humidity;BMP_temperature;BMP_pressure;BME280_temperature;BME280_humidity;BME280_pressure;Samples;Min_cycle;Max_cycle;Signal;HPM_P1;HPM_P2
2022/07/15 00:00:16;;;;;;;13.70;5.65;;;;;;;11.15;100.00;163478.47;4999370;28;20133;-61
2022/07/15 00:02:41;;;;;;;6.80;4.30;;;;;;;11.07;100.00;163459.59;4993897;28;20790;-62
2022/07/15 00:05:07;;;;;;;11.48;4.13;;;;;;;11.14;100.00;163477.16;4992662;28;20053;-62
2022/07/15 00:07:33;;;;;;;7.35;3.88;;;;;;;10.86;100.00;163402.88;5004371;28;20185;-62
2022/07/15 00:10:14;;;;;;;11.20;4.03;;;;;;;10.98;100.00;163435.31;5011523;28;20062;-62
2022/07/15 00:12:49;;;;;;;6.20;3.35;;;;;;;10.84;100.00;163398.84;5013913;28;20045;-62
2022/07/15 00:15:16;;;;;;;11.88;5.88;;;;;;;10.72;100.00;163367.78;5012169;28;20037;-62
2022/07/15 00:17:42;;;;;;;16.85;5.90;;;;;;;10.60;100.00;163336.75;5013093;28;20026;-62
2022/07/15 00:20:10;;;;;;;10.70;4.65;;;;;;;10.51;100.00;163311.09;5011913;28;20057;-62
2022/07/15 00:22:36;;;;;;;12.30;5.63;;;;;;;10.35;100.00;163270.56;5012362;28;20075;-62
2022/07/15 00:25:01;;;;;;;11.52;4.20;;;;;;;10.18;100.00;163224.66;4992176;28;20046;-63
2022/07/15 00:27:27;;;;;;;5.22;4.28;;;;;;;10.06;100.00;163195.00;4993789;28;20029;-63
2022/07/15 00:29:52;;;;;;;8.27;4.90;;;;;;;9.94;100.00;163163.97;4992221;28;20054;-62
2022/07/15 00:32:17;;;;;;;11.07;5.32;;;;;;;9.86;100.00;163141.03;4993187;28;20030;-65
2022/07/15 00:34:43;;;;;;;14.68;5.47;;;;;;;9.83;100.00;163135.63;4992418;28;20034;-66
2022/07/15 00:37:08;;;;;;;16.73;6.55;;;;;;;9.87;100.00;163143.69;4993550;28;20501;-66
2022/07/15 00:39:34;;;;;;;8.38;4.43;;;;;;;9.91;100.00;163154.50;4991848;28;20030;-66
2022/07/15 00:41:59;;;;;;;8.52;4.65;;;;;;;9.93;100.00;163159.94;4993550;28;20022;-66
2022/07/15 00:44:25;;;;;;;14.32;6.95;;;;;;;9.95;100.00;163165.28;4991963;28;20022;-66
2022/07/15 00:46:54;;;;;;;8.00;4.53;;;;;;;9.87;100.00;163143.69;4993064;28;20022;-64
2022/07/15 00:49:20;;;;;;;12.18;5.35;;;;;;;9.93;100.00;163159.94;5000476;28;20026;-64
2022/07/15 00:51:53;;;;;;;8.80;5.28;;;;;;;9.92;100.00;163158.53;5011654;28;20054;-63
2022/07/15 00:54:26;;;;;;;9.52;4.38;;;;;;;9.88;100.00;163146.41;5011773;28;20022;-64
2022/07/15 00:56:56;;;;;;;4.38;3.97;;;;;;;9.82;100.00;163132.94;4992042;28;20051;-64
2022/07/15 00:59:24;;;;;;;5.70;4.20;;;;;;;9.72;100.00;163105.91;4992895;28;20509;-64
2022/07/15 01:01:52;;;;;;;11.65;4.15;;;;;;;9.61;100.00;163076.28;5011130;28;20092;-64
2022/07/15 01:04:20;;;;;;;7.43;5.38;;;;;;;9.53;100.00;163056.06;4999177;28;20096;-64
2022/07/15 01:06:45;;;;;;;5.38;4.72;;;;;;;9.31;100.00;162998.03;4991769;28;20042;-63
2022/07/15 01:09:11;;;;;;;14.23;5.90;;;;;;;9.39;100.00;163019.63;4993452;28;20122;-64
2022/07/15 01:11:37;;;;;;;11.45;4.70;;;;;;;9.14;100.00;162954.88;4991713;28;20528;-64
2022/07/15 01:14:02;;;;;;;8.68;4.07;;;;;;;9.23;100.00;162976.44;4992928;28;20030;-63
2022/07/15 01:16:28;;;;;;;7.72;4.35;;;;;;;9.18;100.00;162965.69;4992015;28;20050;-64
2022/07/15 01:18:54;;;;;;;10.27;5.70;;;;;;;9.17;100.00;162962.97;5012171;28;20025;-64
2022/07/15 01:21:19;;;;;;;7.30;4.10;;;;;;;9.16;100.00;162958.91;5010774;28;20046;-64
2022/07/15 01:23:45;;;;;;;9.38;4.95;;;;;;;9.13;100.00;162950.84;5012294;28;20022;-64
2022/07/15 01:26:11;;;;;;;11.20;5.35;;;;;;;9.13;100.00;162952.16;5010872;28;20513;-64
2022/07/15 01:28:37;;;;;;;9.75;5.93;;;;;;;9.17;100.00;162962.97;5012051;28;20041;-62
2022/07/15 01:31:04;;;;;;;5.95;3.88;;;;;;;9.18;100.00;162964.31;5010265;28;20061;-62
2022/07/15 01:33:30;;;;;;;5.97;3.85;;;;;;;9.15;100.00;162956.25;5011954;28;20394;-62
2022/07/15 01:35:55;;;;;;;5.35;3.58;;;;;;;9.13;100.00;162952.16;5010773;28;20042;-62
2022/07/15 01:38:20;;;;;;;7.35;4.68;;;;;;;9.08;100.00;162937.38;5011708;28;20033;-62
2022/07/15 01:40:46;;;;;;;9.95;3.72;;;;;;;9.04;100.00;162927.94;5010834;28;20105;-63
2022/07/15 01:43:11;;;;;;;5.15;4.50;;;;;;;9.00;100.00;162917.13;5011891;28;20034;-63
2022/07/15 01:45:37;;;;;;;3.70;3.35;;;;;;;8.98;100.00;162911.72;5010240;28;20417;-63
2022/07/15 01:48:03;;;;;;;7.45;4.45;;;;;;;8.99;100.00;162914.41;4993748;28;20026;-64
2022/07/15 01:50:28;;;;;;;17.40;5.60;;;;;;;8.98;100.00;162911.72;4991043;28;20129;-64
2022/07/15 01:52:53;;;;;;;4.25;2.50;;;;;;;8.89;100.00;162890.19;4992251;28;20042;-64
2022/07/15 01:55:19;;;;;;;5.20;3.15;;;;;;;8.88;100.00;162886.09;4990909;28;20061;-64
2022/07/15 01:57:44;;;;;;;4.88;4.05;;;;;;;8.83;100.00;162873.94;4992266;28;20026;-64
2022/07/15 02:00:12;;;;;;;9.18;5.07;;;;;;;8.80;100.00;162864.53;4990581;28;20034;-60
2022/07/15 02:02:37;;;;;;;5.70;3.35;;;;;;;8.78;100.00;162860.50;4992120;28;20037;-61
2022/07/15 02:05:03;;;;;;;3.47;2.90;;;;;;;8.65;100.00;162825.44;4990713;28;20061;-61
2022/07/15 02:07:28;;;;;;;9.02;3.38;;;;;;;8.70;100.00;162840.28;4992159;28;20026;-62
2022/07/15 02:09:53;;;;;;;11.02;2.25;;;;;;;8.70;100.00;162838.91;4990539;28;20037;-61
2022/07/15 02:12:19;;;;;;;31.83;2.25;;;;;;;8.66;100.00;162828.16;5006192;28;20021;-61
2022/07/15 02:14:44;;;;;;;13.90;3.63;;;;;;;8.63;100.00;162820.03;5021585;28;20045;-61
2022/07/15 02:17:09;;;;;;;70.43;5.90;;;;;;;8.56;100.00;162802.53;5010686;28;20504;-61
2022/07/15 02:19:35;;;;;;;45.50;4.45;;;;;;;8.50;100.00;162787.72;5015000;28;20389;-61
2022/07/15 02:22:00;;;;;;;68.68;8.38;;;;;;;8.46;100.00;162776.84;5020072;28;20018;-61
2022/07/15 02:24:26;;;;;;;3.65;2.10;;;;;;;8.44;100.00;162771.50;5019363;28;20017;-62
2022/07/15 02:26:51;;;;;;;14.50;2.70;;;;;;;8.28;100.00;162729.66;5021015;28;20018;-60
2022/07/15 02:29:17;;;;;;;4.70;2.35;;;;;;;8.23;100.00;162716.22;5019736;28;20045;-60
2022/07/15 02:31:43;;;;;;;37.55;3.78;;;;;;;8.36;100.00;162749.91;5017961;28;20038;-60
2022/07/15 02:34:08;;;;;;;17.45;3.15;;;;;;;8.33;100.00;162741.81;5021113;28;20492;-61
2022/07/15 02:36:34;;;;;;;52.35;4.35;;;;;;;8.32;100.00;162739.09;5019738;28;20379;-60
2022/07/15 02:38:59;;;;;;;69.90;4.63;;;;;;;8.28;100.00;162729.66;5018838;28;20025;-60
2022/07/15 02:41:24;;;;;;;4.40;3.00;;;;;;;8.24;100.00;162720.25;5020210;28;20041;-61
2022/07/15 02:43:50;;;;;;;2.55;2.35;;;;;;;8.27;100.00;162726.97;5019142;28;20022;-61
2022/07/15 02:46:16;;;;;;;4.38;2.50;;;;;;;8.34;100.00;162744.50;5018042;28;20037;-61
2022/07/15 02:48:41;;;;;;;2.45;2.35;;;;;;;8.42;100.00;162766.09;5021640;28;20025;-61
2022/07/15 02:51:07;;;;;;;3.85;3.55;;;;;;;8.38;100.00;162755.25;5018538;28;20034;-61
2022/07/15 02:53:33;;;;;;;8.60;4.03;;;;;;;8.55;100.00;162801.16;5020307;28;20021;-61
2022/07/15 02:55:59;;;;;;;7.60;4.93;;;;;;;8.64;100.00;162824.06;5020137;28;20049;-61
2022/07/15 02:58:26;;;;;;;13.63;7.43;;;;;;;8.75;100.00;162852.38;5015572;28;20044;-62
2022/07/15 03:00:52;;;;;;;15.02;5.85;;;;;;;8.86;100.00;162882.06;5018253;28;20049;-62
2022/07/15 03:03:17;;;;;;;14.82;5.03;;;;;;;8.77;100.00;162857.78;5019718;28;20032;-63
2022/07/15 03:05:42;;;;;;;8.20;4.85;;;;;;;8.98;100.00;162911.72;5020379;28;20044;-62
2022/07/15 03:08:08;;;;;;;9.02;4.93;;;;;;;9.00;100.00;162917.13;5019350;28;20030;-63
2022/07/15 03:10:33;;;;;;;8.85;4.72;;;;;;;9.02;100.00;162923.84;5018998;28;20492;-63
2022/07/15 03:12:59;;;;;;;21.08;7.38;;;;;;;9.07;100.00;162934.66;5020302;28;20427;-63
2022/07/15 03:15:25;;;;;;;17.30;6.25;;;;;;;9.14;100.00;162954.88;5013330;28;20057;-63
2022/07/15 03:17:50;;;;;;;9.05;5.15;;;;;;;9.06;100.00;162933.28;5022425;28;20018;-63
2022/07/15 03:20:15;;;;;;;4.43;4.00;;;;;;;9.17;100.00;162961.59;5023022;28;20393;-63
2022/07/15 03:22:41;;;;;;;8.30;4.65;;;;;;;9.18;100.00;162965.69;5024325;28;20033;-61
2022/07/15 03:25:07;;;;;;;10.95;3.90;;;;;;;9.25;100.00;162981.84;5021609;28;20038;-61
2022/07/15 03:27:33;;;;;;;10.55;5.22;;;;;;;9.27;100.00;162987.28;5022632;28;20018;-61
2022/07/15 03:29:59;;;;;;;6.60;5.28;;;;;;;9.32;100.00;163000.75;5022847;28;20149;-61
2022/07/15 03:32:25;;;;;;;9.88;5.00;;;;;;;9.40;100.00;163022.31;5020007;28;20504;-62
2022/07/15 03:34:50;;;;;;;7.05;4.63;;;;;;;9.42;100.00;163027.69;5017607;28;20038;-63
2022/07/15 03:37:16;;;;;;;15.27;5.35;;;;;;;9.49;100.00;163045.25;5013742;28;20026;-63
2022/07/15 03:39:41;;;;;;;15.68;4.45;;;;;;;9.53;100.00;163057.38;5013024;28;20038;-62
2022/07/15 03:42:06;;;;;;;11.20;5.20;;;;;;;9.60;100.00;163073.56;5012027;28;20033;-63
2022/07/15 03:44:32;;;;;;;6.28;4.72;;;;;;;9.66;100.00;163089.75;5012039;28;20037;-63
2022/07/15 03:46:57;;;;;;;20.25;5.68;;;;;;;9.74;100.00;163111.34;5014320;28;20025;-63
2022/07/15 03:49:22;;;;;;;10.05;5.13;;;;;;;9.84;100.00;163138.34;5013957;28;20083;-63
2022/07/15 03:51:48;;;;;;;12.00;5.35;;;;;;;9.94;100.00;163162.63;5012245;28;20057;-63
2022/07/15 03:54:14;;;;;;;12.25;6.72;;;;;;;10.02;100.00;163184.19;5014136;28;20026;-63
2022/07/15 03:56:39;;;;;;;9.55;4.60;;;;;;;10.10;100.00;163205.78;5012616;28;20509;-63
2022/07/15 03:59:06;;;;;;;12.90;5.78;;;;;;;10.15;100.00;163219.28;5011695;28;20037;-63
2022/07/15 04:01:32;;;;;;;19.75;6.40;;;;;;;10.26;100.00;163246.25;5012569;28;20615;-63
2022/07/15 04:03:58;;;;;;;19.27;8.15;;;;;;;10.34;100.00;163267.84;5013498;28;20026;-62
2022/07/15 04:06:24;;;;;;;9.43;6.90;;;;;;;10.44;100.00;163293.53;5011981;28;20049;-63
2022/07/15 04:08:50;;;;;;;18.08;6.82;;;;;;;10.52;100.00;163315.13;5013820;28;20481;-63
2022/07/15 04:11:15;;;;;;;11.38;5.68;;;;;;;10.58;100.00;163330.00;5010508;28;20061;-62
2022/07/15 04:13:41;;;;;;;14.38;7.35;;;;;;;10.66;100.00;163350.22;5011599;28;20367;-62
2022/07/15 04:16:07;;;;;;;13.35;6.40;;;;;;;10.71;100.00;163365.09;5004711;28;20038;-61
2022/07/15 04:18:33;;;;;;;24.88;6.93;;;;;;;10.77;100.00;163381.28;5013815;28;20080;-63
2022/07/15 04:20:58;;;;;;;15.52;6.47;;;;;;;10.83;100.00;163394.81;5011915;28;20061;-63
2022/07/15 04:23:24;;;;;;;13.07;6.70;;;;;;;10.89;100.00;163411.00;5002386;28;20026;-63
2022/07/15 04:25:52;;;;;;;14.82;7.10;;;;;;;10.94;100.00;163424.50;5010926;28;20042;-63
2022/07/15 04:28:21;;;;;;;14.63;8.48;;;;;;;11.00;100.00;163440.69;5009079;28;20089;-63
2022/07/15 04:30:47;;;;;;;13.15;6.80;;;;;;;11.08;100.00;163460.97;4990844;28;20489;-63
2022/07/15 04:33:12;;;;;;;17.08;7.50;;;;;;;11.08;100.00;163460.97;4993658;28;20054;-64
2022/07/15 04:35:38;;;;;;;10.30;7.07;;;;;;;11.20;100.00;163492.03;5010075;28;20570;-63
2022/07/15 04:38:04;;;;;;;13.98;7.90;;;;;;;11.25;100.00;163506.84;5012520;28;20026;-63
2022/07/15 04:40:31;;;;;;;16.65;9.38;;;;;;;11.30;100.00;163519.00;5011803;28;20038;-63
2022/07/15 04:42:58;;;;;;;12.10;6.55;;;;;;;11.36;100.00;163535.19;5012411;28;20022;-63
2022/07/15 04:45:24;;;;;;;9.73;6.80;;;;;;;11.42;100.00;163551.44;4997391;28;20060;-63
2022/07/15 04:47:49;;;;;;;16.40;8.05;;;;;;;11.50;100.00;163570.34;4993436;28;20097;-63
2022/07/15 04:52:58;;;;;;;9.10;6.68;;;;;;;11.66;100.00;163613.53;5013237;28;20091;-63
2022/07/15 04:55:23;;;;;;;16.50;7.85;;;;;;;11.72;100.00;163629.78;5010068;28;20448;-63
2022/07/15 04:57:49;;;;;;;12.85;6.80;;;;;;;11.62;100.00;163602.75;5009782;28;20032;-63
2022/07/15 05:00:14;;;;;;;18.90;9.38;;;;;;;11.80;100.00;163648.69;4995204;28;20502;-63
2022/07/15 05:02:39;;;;;;;7.20;5.65;;;;;;;11.88;100.00;163671.63;4993293;28;20392;-63
2022/07/15 05:05:07;;;;;;;21.17;7.35;;;;;;;12.04;100.00;163712.22;4991546;28;20097;-63
2022/07/15 05:07:32;;;;;;;15.82;6.47;;;;;;;12.19;100.00;163751.38;4993056;28;20030;-63
2022/07/15 05:09:57;;;;;;;20.85;6.85;;;;;;;12.29;100.00;163777.03;4991613;28;20557;-63
2022/07/15 05:12:23;;;;;;;14.82;6.65;;;;;;;12.32;100.00;163786.50;4992868;28;20449;-63
2022/07/15 05:14:48;;;;;;;8.55;5.28;;;;;;;12.35;100.00;163794.63;4991409;28;20030;-63
2022/07/15 05:17:13;;;;;;;14.95;5.28;;;;;;;12.41;100.00;163808.13;4992518;28;20022;-63
2022/07/15 05:19:39;;;;;;;15.95;5.60;;;;;;;12.46;100.00;163821.66;4991773;28;20122;-62
2022/07/15 05:22:04;;;;;;;13.32;5.13;;;;;;;12.50;100.00;163832.47;5006594;28;20072;-63
2022/07/15 05:24:29;;;;;;;11.73;4.68;;;;;;;12.51;100.00;163835.16;5020301;28;20044;-62
2022/07/15 05:26:55;;;;;;;19.20;7.05;;;;;;;12.58;100.00;163854.09;5021003;28;20112;-62
2022/07/15 05:29:21;;;;;;;10.35;4.60;;;;;;;12.68;100.00;163881.13;5021947;28;20521;-62
2022/07/15 05:31:48;;;;;;;9.05;5.75;;;;;;;12.63;100.00;163867.59;5019921;28;20602;-62
2022/07/15 05:34:13;;;;;;;11.77;4.40;;;;;;;13.04;100.00;163974.38;5020715;28;20048;-61
2022/07/15 05:36:39;;;;;;;8.13;4.00;;;;;;;13.15;100.00;164002.75;5021095;28;20512;-62
2022/07/15 05:39:04;;;;;;;12.80;5.78;;;;;;;13.27;100.00;164035.22;5021978;28;20057;-62
2022/07/15 05:41:32;;;;;;;12.35;3.53;;;;;;;13.29;100.00;164040.59;5019668;28;20493;-62
2022/07/15 05:43:57;;;;;;;12.57;4.82;;;;;;;13.29;100.00;164040.59;5020335;28;20117;-63
2022/07/15 05:46:23;;;;;;;11.77;4.95;;;;;;;13.45;100.00;164081.22;5016064;28;20033;-62
2022/07/15 05:48:48;;;;;;;14.90;5.22;;;;;;;13.60;100.00;164121.78;5021600;28;20100;-61
2022/07/15 05:51:14;;;;;;;14.75;3.95;;;;;;;13.70;100.00;164146.16;5019839;28;20042;-62
2022/07/15 05:53:39;;;;;;;14.38;4.43;;;;;;;13.89;100.00;164197.53;5021291;28;20104;-59
2022/07/15 05:56:05;;;;;;;15.20;5.53;;;;;;;14.07;100.00;164243.53;5015118;28;20514;-59
2022/07/15 05:58:30;;;;;;;8.68;3.72;;;;;;;14.09;100.00;164248.94;5019966;28;20413;-58
2022/07/15 06:00:55;;;;;;;10.65;3.83;;;;;;;14.05;100.00;164238.09;5017887;28;20038;-58
2022/07/15 06:03:21;;;;;;;12.10;3.47;;;;;;;14.03;100.00;164234.06;5019957;28;20026;-58
2022/07/15 06:05:46;;;;;;;7.78;4.15;;;;;;;13.99;100.00;164221.88;5013242;28;20053;-58
2022/07/15 06:08:12;;;;;;;11.68;3.35;;;;;;;14.06;100.00;164240.81;5012467;28;20421;-58
2022/07/15 06:10:37;;;;;;;14.95;4.18;;;;;;;13.79;100.00;164170.50;5009874;28;20038;-58
2022/07/15 06:13:03;;;;;;;11.05;4.65;;;;;;;14.10;100.00;164251.66;5011137;28;20363;-58
2022/07/15 06:15:30;;;;;;;15.20;4.00;;;;;;;14.15;100.00;164265.19;5002706;28;20042;-58
2022/07/15 06:17:56;;;;;;;10.07;3.40;;;;;;;14.20;100.00;164277.34;4991876;28;20100;-58
2022/07/15 06:20:22;;;;;;;16.70;6.65;;;;;;;14.21;100.00;164281.41;4982373;28;20130;-58
2022/07/15 06:22:48;;;;;;;6.18;3.42;;;;;;;14.44;100.00;164340.94;4972557;28;20026;-58
2022/07/15 06:25:13;;;;;;;14.80;3.25;;;;;;;14.39;100.00;164328.75;4971080;28;20430;-58
2022/07/15 06:27:39;;;;;;;7.78;3.05;;;;;;;14.64;100.00;164392.31;4971946;28;20027;-58
2022/07/15 06:30:05;;;;;;;12.32;3.47;;;;;;;14.79;100.00;164432.97;4970554;28;20043;-58
2022/07/15 06:32:31;;;;;;;5.85;2.08;;;;;;;14.98;100.00;164483.06;4972623;28;20536;-58
2022/07/15 06:34:56;;;;;;;18.40;4.38;;;;;;;15.09;100.00;164511.47;4970886;28;20035;-58
2022/07/15 06:37:22;;;;;;;19.77;4.10;;;;;;;15.37;100.00;164585.94;4972294;28;20035;-58
2022/07/15 06:39:48;;;;;;;10.20;3.33;;;;;;;15.65;100.00;164657.69;4971302;28;20050;-58
2022/07/15 06:42:13;;;;;;;4.53;2.10;;;;;;;16.17;100.00;164795.88;4971926;28;20077;-58
2022/07/15 06:44:38;;;;;;;10.25;2.60;;;;;;;16.79;100.00;164958.38;4971253;28;20371;-58
2022/07/15 06:47:06;;;;;;;7.32;2.22;;;;;;;17.30;100.00;165091.25;4972294;28;20485;-58
2022/07/15 06:49:32;;;;;;;7.65;2.50;;;;;;;17.98;100.00;165270.22;4970655;28;20027;-58
2022/07/15 06:51:58;;;;;;;9.00;2.10;;;;;;;18.41;100.00;165381.38;4973040;28;20792;-58
2022/07/15 06:54:24;;;;;;;10.50;3.47;;;;;;;18.96;100.00;165527.88;5004013;28;20030;-58
2022/07/15 06:56:49;;;;;;;5.53;1.65;;;;;;;19.36;100.00;165631.00;5013310;28;20045;-58
2022/07/15 06:59:15;;;;;;;5.53;1.73;;;;;;;19.77;100.00;165739.56;4998363;28;20030;-58
2022/07/15 07:01:40;;;;;;;8.38;1.70;;;;;;;19.78;100.00;165742.25;4993005;28;20038;-58
2022/07/15 07:04:05;;;;;;;5.28;1.35;;;;;;;19.71;100.00;165723.25;4992731;28;20482;-58
2022/07/15 07:06:31;;;;;;;5.38;1.67;;;;;;;19.91;100.00;165777.63;4974497;28;20087;-58
2022/07/15 07:08:56;;;;;;;6.13;1.73;;;;;;;20.10;100.00;165826.44;4975692;28;20078;-58
2022/07/15 07:11:22;;;;;;;6.20;2.45;;;;;;;19.71;100.00;165723.25;4991601;28;20097;-58
2022/07/15 07:13:48;;;;;;;10.40;1.55;;;;;;;19.29;100.00;165613.34;5014970;28;20036;-58
2022/07/15 07:16:14;;;;;;;5.00;0.80;;;;;;;19.15;100.00;165578.06;5012938;28;20040;-58
2022/07/15 07:18:40;;;;;;;7.65;1.65;;;;;;;19.09;100.00;165560.47;5013962;28;20391;-58
2022/07/15 07:21:05;;;;;;;4.40;1.67;;;;;;;18.27;100.00;165346.16;5012976;28;20042;-59
2022/07/15 07:23:31;;;;;;;4.55;1.67;;;;;;;18.20;100.00;165328.50;5014344;28;20370;-58
2022/07/15 07:25:58;;;;;;;6.72;1.90;;;;;;;18.06;100.00;165291.88;5012789;28;20038;-58
2022/07/15 07:28:23;;;;;;;6.13;1.15;;;;;;;17.91;100.00;165252.53;5013956;28;20072;-58
2022/07/15 07:30:54;;;;;;;5.75;1.38;;;;;;;17.99;100.00;165272.91;5013185;28;20493;-58
2022/07/15 07:33:20;;;;;;;7.80;1.33;;;;;;;18.04;100.00;165286.50;5013968;28;20037;-58
2022/07/15 07:35:46;;;;;;;3.65;1.55;;;;;;;18.14;100.00;165310.84;5013016;28;20061;-58
2022/07/15 07:38:12;;;;;;;2.70;1.75;;;;;;;18.03;100.00;165282.38;5024255;28;20121;-58
2022/07/15 07:40:37;;;;;;;5.50;2.38;;;;;;;17.95;100.00;165262.06;5011319;28;20030;-58
2022/07/15 07:43:02;;;;;;;5.97;1.83;;;;;;;18.20;100.00;165328.50;5018854;28;20504;-58
2022/07/15 07:45:29;;;;;;;10.27;2.17;;;;;;;18.44;100.00;165390.88;5032351;28;20057;-58
2022/07/15 07:47:55;;;;;;;5.80;1.88;;;;;;;18.55;100.00;165420.69;5033799;28;20022;-58
2022/07/15 07:50:21;;;;;;;5.18;1.70;;;;;;;18.43;100.00;165386.81;5031855;28;20040;-58
2022/07/15 07:52:47;;;;;;;4.15;1.40;;;;;;;18.52;100.00;165411.19;5033958;28;20021;-58
2022/07/15 07:55:12;;;;;;;13.80;2.67;;;;;;;18.33;100.00;165362.41;5033606;28;20108;-58
2022/07/15 07:57:53;;;;;;;8.00;1.48;;;;;;;18.35;100.00;165367.84;5032194;28;20168;-58
2022/07/15 08:00:19;;;;;;;5.20;1.10;;;;;;;18.58;100.00;165426.13;5032194;28;20538;-58
2022/07/15 08:02:45;;;;;;;3.58;1.40;;;;;;;18.43;100.00;165388.16;5033311;28;20100;-58
2022/07/15 08:05:11;;;;;;;13.05;2.45;;;;;;;18.74;100.00;165468.16;5033847;28;20101;-58
2022/07/15 08:07:37;;;;;;;1.00;0.80;;;;;;;19.00;100.00;165537.38;5032281;28;20042;-58
2022/07/15 08:10:04;;;;;;;5.50;1.50;;;;;;;19.50;100.00;165670.38;5033289;28;20099;-59
2022/07/15 08:12:29;;;;;;;3.53;0.90;;;;;;;19.59;100.00;165693.41;5031808;28;20117;-58
2022/07/15 08:14:54;;;;;;;4.57;2.53;;;;;;;19.19;100.00;165587.56;5033587;28;20048;-59
2022/07/15 08:17:21;;;;;;;9.25;1.55;;;;;;;18.67;100.00;165451.88;5027332;28;20077;-59
2022/07/15 08:19:47;;;;;;;2.67;1.48;;;;;;;18.15;100.00;165313.56;5013347;28;20088;-58
2022/07/15 08:22:12;;;;;;;3.50;1.30;;;;;;;17.98;100.00;165268.84;5028029;28;20132;-58
2022/07/15 08:24:37;;;;;;;2.40;1.15;;;;;;;18.56;100.00;165422.06;5033404;28;20014;-58
2022/07/15 08:27:03;;;;;;;5.35;1.92;;;;;;;19.21;100.00;165593.00;5031348;28;20046;-59
2022/07/15 08:29:28;;;;;;;4.10;1.05;;;;;;;19.89;100.00;165772.16;5031580;28;20140;-59
2022/07/15 08:31:53;;;;;;;6.80;1.30;;;;;;;20.53;100.00;165939.13;5029952;28;20021;-59
2022/07/15 08:34:19;;;;;;;6.32;1.52;;;;;;;20.58;100.00;165954.06;5020366;28;20077;-58
2022/07/15 08:36:44;;;;;;;3.65;1.15;;;;;;;20.49;100.00;165929.63;5011884;28;20038;-58
2022/07/15 08:39:09;;;;;;;7.68;1.25;;;;;;;20.28;100.00;165873.94;5007897;28;20397;-58
2022/07/15 08:41:36;;;;;;;4.50;1.60;;;;;;;20.43;100.00;165913.34;5005900;28;20037;-58
2022/07/15 08:44:02;;;;;;;3.75;0.85;;;;;;;20.78;100.00;166005.69;5013095;28;20065;-58
2022/07/15 08:46:28;;;;;;;8.10;0.98;;;;;;;20.81;100.00;166013.84;5011474;28;20052;-58
2022/07/15 08:49:01;;;;;;;3.33;1.95;;;;;;;21.02;100.00;166069.50;5012454;28;20057;-59
2022/07/15 08:51:28;;;;;;;2.78;0.90;;;;;;;21.04;100.00;166074.94;5011368;28;20049;-59
2022/07/15 08:53:55;;;;;;;2.67;0.98;;;;;;;20.80;100.00;166009.75;5013129;28;20047;-58
2022/07/15 08:56:21;;;;;;;2.15;1.05;;;;;;;20.89;100.00;166035.53;5010497;28;20045;-59
2022/07/15 08:58:47;;;;;;;2.97;1.00;;;;;;;20.96;100.00;166051.88;5012974;28;20026;-59
2022/07/15 09:01:12;;;;;;;5.10;1.33;;;;;;;21.03;100.00;166070.88;5011205;28;20100;-59
2022/07/15 09:03:38;;;;;;;4.63;1.33;;;;;;;20.71;100.00;165987.97;5012405;28;20092;-59
2022/07/15 09:06:04;;;;;;;10.38;1.30;;;;;;;21.26;100.00;166130.63;5011233;28;20126;-59
2022/07/15 09:08:31;;;;;;;3.83;0.90;;;;;;;21.66;100.00;166236.59;5013116;28;20053;-59
2022/07/15 09:10:58;;;;;;;7.68;1.58;;;;;;;22.07;100.00;166345.28;5010778;28;20405;-59
2022/07/15 09:13:38;;;;;;;2.13;0.73;;;;;;;22.39;100.00;166429.53;5012588;28;20026;-59
2022/07/15 09:16:20;;;;;;;2.35;0.80;;;;;;;22.10;98.48;166353.41;5010438;28;20099;-59
2022/07/15 09:18:49;;;;;;;2.08;1.17;;;;;;;21.84;100.00;166285.50;5012329;28;20034;-59
2022/07/15 09:21:17;;;;;;;;;;;;;;;20.94;100.00;166046.44;5011576;28;20097;-59
2022/07/15 09:23:42;;;;;;;7.60;2.58;;;;;;;20.88;100.00;166031.47;5012628;28;19943;-59
2022/07/15 09:26:28;;;;;;;2.72;1.00;;;;;;;20.60;100.00;165959.47;5010363;28;20046;-59
2022/07/15 09:28:54;;;;;;;3.80;0.85;;;;;;;20.29;100.00;165878.00;5012225;28;20149;-59
2022/07/15 09:34:20;;;;;;;2.80;0.80;;;;;;;20.22;100.00;165857.66;5012373;28;20100;-59
2022/07/15 09:36:52;;;;;;;2.13;0.85;;;;;;;21.11;100.00;166092.56;5011476;28;20046;-59
2022/07/15 09:39:19;;;;;;;4.47;1.67;;;;;;;21.35;99.63;166155.03;5011877;28;20048;-59
2022/07/15 09:41:46;;;;;;;1.10;0.60;;;;;;;21.21;100.00;166119.75;5010828;28;20458;-59
2022/07/15 09:44:21;;;;;;;4.45;1.00;;;;;;;20.73;100.00;165992.13;5012129;28;20663;-59
2022/07/15 09:46:56;;;;;;;6.13;1.58;;;;;;;20.46;100.00;165921.44;5009266;28;20042;-59
2022/07/15 09:49:32;;;;;;;6.68;2.05;;;;;;;20.74;100.00;165994.78;5010444;28;20025;-59
2022/07/15 09:52:09;;;;;;;1.67;0.80;;;;;;;20.80;100.00;166009.75;5012073;28;20075;-59
2022/07/15 09:54:41;;;;;;;3.13;0.93;;;;;;;20.63;100.00;165964.91;5010246;28;20109;-59
2022/07/15 09:57:09;;;;;;;4.03;1.08;;;;;;;20.57;100.00;165949.94;5009174;28;20036;-60
2022/07/15 09:59:34;;;;;;;2.03;1.10;;;;;;;21.01;100.00;166065.44;4991881;28;20030;-59
2022/07/15 10:01:59;;;;;;;2.00;0.85;;;;;;;21.46;100.00;166184.94;5002619;28;20393;-59
2022/07/15 10:04:27;;;;;;;3.70;2.17;;;;;;;21.69;100.00;166244.75;5009308;28;20021;-59
2022/07/15 10:06:55;;;;;;;1.20;1.13;;;;;;;21.93;100.00;166308.59;4991081;28;20680;-59
2022/07/15 10:09:26;;;;;;;3.97;0.90;;;;;;;22.05;94.69;166339.84;4991465;28;20437;-59
2022/07/15 10:11:54;;;;;;;2.13;0.82;;;;;;;21.73;92.20;166255.59;5001959;28;20042;-59
2022/07/15 10:14:22;;;;;;;1.10;0.93;;;;;;;21.61;97.59;166223.00;5006489;28;20076;-59
2022/07/15 10:17:06;;;;;;;1.27;0.90;;;;;;;21.60;95.79;166220.28;5009764;28;20048;-59
2022/07/15 10:20:07;;;;;;;4.63;0.90;;;;;;;21.36;95.86;166157.75;5006785;28;20030;-59
2022/07/15 10:23:01;;;;;;;1.63;0.80;;;;;;;21.19;96.24;166114.28;5010185;28;20033;-64
2022/07/15 10:25:46;;;;;;;3.28;1.00;;;;;;;21.06;95.76;166079.00;4997314;28;20505;-59
2022/07/15 10:28:22;;;;;;;1.38;0.70;;;;;;;20.65;100.00;165970.34;4977131;28;20073;-59
2022/07/15 10:31:25;;;;;;;1.17;0.75;;;;;;;20.91;100.00;166040.97;4975266;28;20382;-58
2022/07/15 10:34:02;;;;;;;1.23;0.50;;;;;;;21.16;100.00;166104.78;4985545;28;20031;-58
2022/07/15 10:36:46;;;;;;;7.30;1.15;;;;;;;21.28;98.52;166136.03;4980152;28;20053;-58
2022/07/15 10:39:16;;;;;;;14.30;1.92;;;;;;;21.51;93.37;166198.50;4977712;28;20125;-58
2022/07/15 10:41:52;;;;;;;2.55;0.70;;;;;;;21.26;94.39;166130.63;4978610;28;20466;-58
2022/07/15 10:44:18;;;;;;;2.05;0.65;;;;;;;21.20;94.97;166117.00;4995934;28;20033;-59
2022/07/15 10:46:44;;;;;;;0.95;0.55;;;;;;;21.50;96.60;166195.78;4992756;28;20043;-59
2022/07/15 10:49:09;;;;;;;4.70;1.10;;;;;;;21.89;98.77;166297.75;4975668;28;20414;-59
2022/07/15 10:51:35;;;;;;;59.10;6.13;;;;;;;22.10;100.00;166353.41;4974518;28;20125;-59
2022/07/15 10:54:04;;;;;;;1.42;1.15;;;;;;;21.58;96.90;166216.22;4996346;28;20100;-59
2022/07/15 10:56:56;;;;;;;4.05;1.00;;;;;;;21.13;99.10;166098.00;4997412;28;20055;-59
2022/07/15 10:59:24;;;;;;;2.97;0.95;;;;;;;21.07;92.34;166081.72;4988539;28;20413;-59
2022/07/15 11:02:10;;;;;;;5.00;0.75;;;;;;;20.94;100.00;166046.44;4998155;28;20042;-59
2022/07/15 11:04:36;;;;;;;4.30;0.93;;;;;;;20.70;100.00;165983.91;4997827;28;20033;-59
2022/07/15 11:07:01;;;;;;;1.75;0.50;;;;;;;20.63;100.00;165964.91;5005948;28;20083;-59
2022/07/15 11:09:48;;;;;;;1.98;0.95;;;;;;;20.90;100.00;166038.25;4995011;28;20169;-59
2022/07/15 11:12:18;;;;;;;4.05;1.67;;;;;;;21.50;100.00;166194.44;5005994;28;20101;-59
2022/07/15 11:15:01;;;;;;;4.68;0.50;;;;;;;22.38;96.46;166426.75;5000203;28;20046;-59
2022/07/15 11:17:29;;;;;;;2.60;0.63;;;;;;;22.10;99.01;166353.41;4978518;28;20034;-59
2022/07/15 11:19:56;;;;;;;;;;;;;;;21.94;93.37;166309.94;4974301;28;20038;-59
2022/07/15 11:22:23;;;;;;;0.90;0.50;;;;;;;21.31;99.68;166144.19;4980615;28;19914;-60